X  Zavřít Letištní data METAR     LKTB Brno-Tuřany Airport
Teplota
20°C Teplota
10°C Rosný bod
53% Vlhkost



Vítr
14 KM/H
9 MPH
4 M/S
8 KTS



100°
V
Aktuální stav

Jasno Jasno
Tlak 1011.92 (hPa) - 29.88 (inHg)
Viditelnost 6.2 (mil) - 10 (km)
Letiště
Kód letiště LKTB

Umístění: Brno-Tuřany Airport
Vzdálenost: 25 (km)

Metar:
LKTB 101830Z 10008KT CAVOK 20/10 Q1012 NOSIG

Čas: 10-05-2021 20:30 CEST